createdAt,value
2023-03-11T00:00:18.925Z,97711.50
2023-03-11T00:00:50.930Z,97707.56
2023-03-11T00:01:22.670Z,97724.69
2023-03-11T00:02:27.794Z,97721.41
2023-03-11T00:03:08.156Z,97724.47
2023-03-11T00:03:44.046Z,97721.22
2023-03-11T00:04:15.834Z,97721.44
2023-03-11T00:04:47.574Z,97725.78
2023-03-11T00:05:20.764Z,97722.03
2023-03-11T00:05:53.816Z,97720.38
2023-03-11T00:07:01.088Z,97724.06
2023-03-11T00:08:09.360Z,97738.28
2023-03-11T00:08:41.394Z,97727.53
2023-03-11T00:09:45.515Z,97728.34
2023-03-11T00:10:30.093Z,97735.72
2023-03-11T00:11:02.096Z,97737.53
2023-03-11T00:12:07.785Z,97735.66
2023-03-11T00:13:16.393Z,97740.31
2023-03-11T00:13:49.111Z,97742.41
2023-03-11T00:14:20.932Z,97734.97
2023-03-11T00:14:52.739Z,97731.25
2023-03-11T00:15:58.108Z,97726.97
2023-03-11T00:16:31.183Z,97734.41
2023-03-11T00:17:04.100Z,97728.84
2023-03-11T00:17:37.121Z,97728.47
2023-03-11T00:18:41.225Z,97734.03
2023-03-11T00:19:14.083Z,97729.94
2023-03-11T00:19:47.174Z,97735.75
2023-03-11T00:20:26.217Z,97730.53
2023-03-11T00:21:01.445Z,97732.38
2023-03-11T00:21:33.739Z,97735.72
2023-03-11T00:22:07.049Z,97735.50
2023-03-11T00:22:38.849Z,97724.78
2023-03-11T00:23:13.149Z,97725.34
2023-03-11T00:23:46.874Z,97731.97
2023-03-11T00:24:51.004Z,97730.97
2023-03-11T00:25:30.004Z,97732.41
2023-03-11T00:26:05.118Z,97730.56
2023-03-11T00:26:39.990Z,97733.88
2023-03-11T00:27:13.036Z,97728.34
2023-03-11T00:27:44.863Z,97729.16
2023-03-11T00:28:17.182Z,97727.06
2023-03-11T00:28:49.554Z,97726.84
2023-03-11T00:29:22.071Z,97729.72
2023-03-11T00:30:28.024Z,97723.94
2023-03-11T00:30:59.910Z,97727.00
2023-03-11T00:31:31.744Z,97726.38
2023-03-11T00:32:38.171Z,97719.00
2023-03-11T00:33:12.768Z,97720.84
2023-03-11T00:33:45.765Z,97722.91
2023-03-11T00:34:17.547Z,97716.91
2023-03-11T00:34:52.999Z,97723.47
2023-03-11T00:35:28.234Z,97714.00
2023-03-11T00:36:00.077Z,97715.44
2023-03-11T00:36:31.734Z,97716.47
2023-03-11T00:37:06.984Z,97719.59
2023-03-11T00:37:38.749Z,97711.97
2023-03-11T00:38:15.261Z,97722.88
2023-03-11T00:39:23.376Z,97717.69
2023-03-11T00:39:56.137Z,97725.91
2023-03-11T00:40:31.581Z,97728.38
2023-03-11T00:41:37.634Z,97722.19
2023-03-11T00:42:41.809Z,97722.81
2023-03-11T00:43:38.681Z,97727.19
2023-03-11T00:44:46.064Z,97728.81
2023-03-11T00:45:52.129Z,97722.19
2023-03-11T00:46:29.909Z,97728.13
2023-03-11T00:47:04.637Z,97726.44
2023-03-11T00:47:36.451Z,97722.94
2023-03-11T00:48:09.053Z,97728.06
2023-03-11T00:48:40.891Z,97732.94
2023-03-11T00:49:16.197Z,97731.50
2023-03-11T00:49:47.947Z,97721.19
2023-03-11T00:50:44.294Z,97722.84
2023-03-11T00:51:17.227Z,97731.06
2023-03-11T00:51:52.021Z,97727.75
2023-03-11T00:52:27.198Z,97733.13
2023-03-11T00:53:00.128Z,97729.97
2023-03-11T00:53:35.008Z,97721.34
2023-03-11T00:54:06.833Z,97727.56
2023-03-11T00:55:23.749Z,97728.84
2023-03-11T00:55:56.219Z,97731.88
2023-03-11T00:56:35.924Z,97732.50
2023-03-11T00:57:09.112Z,97728.28
2023-03-11T00:57:42.673Z,97731.63
2023-03-11T00:58:15.077Z,97726.44
2023-03-11T00:58:50.049Z,97731.38
2023-03-11T00:59:25.011Z,97735.25
2023-03-11T00:59:59.904Z,97731.13
2023-03-11T01:00:34.049Z,97733.78
2023-03-11T01:01:13.829Z,97731.75
2023-03-11T01:01:45.687Z,97731.94
2023-03-11T01:02:52.459Z,97728.59
2023-03-11T01:03:24.242Z,97724.03
2023-03-11T01:04:32.109Z,97728.28
2023-03-11T01:05:07.649Z,97727.25
2023-03-11T01:05:43.157Z,97717.59
2023-03-11T01:06:18.507Z,97718.00
2023-03-11T01:06:52.174Z,97715.41
2023-03-11T01:07:25.133Z,97716.03
2023-03-11T01:07:58.879Z,97716.88
2023-03-11T01:08:32.528Z,97713.94
2023-03-11T01:09:38.729Z,97714.34
2023-03-11T01:10:14.267Z,97706.91
2023-03-11T01:10:49.770Z,97707.09
2023-03-11T01:11:25.034Z,97704.50
2023-03-11T01:11:57.256Z,97706.09
2023-03-11T01:12:32.235Z,97712.94
2023-03-11T01:13:06.315Z,97712.94
2023-03-11T01:14:02.882Z,97713.34
2023-03-11T01:15:26.101Z,97721.97
2023-03-11T01:16:01.470Z,97718.28
2023-03-11T01:16:33.380Z,97721.56
2023-03-11T01:17:05.842Z,97722.22
2023-03-11T01:17:39.065Z,97722.47
2023-03-11T01:18:13.649Z,97724.13
2023-03-11T01:18:49.224Z,97719.44
2023-03-11T01:19:21.387Z,97723.69
2023-03-11T01:19:54.109Z,97721.38
2023-03-11T01:20:27.609Z,97725.06
2023-03-11T01:21:01.320Z,97722.59
2023-03-11T01:21:36.127Z,97718.63
2023-03-11T01:22:11.456Z,97722.13
2023-03-11T01:22:43.755Z,97716.44
2023-03-11T01:23:18.666Z,97716.69
2023-03-11T01:23:51.779Z,97714.28
2023-03-11T01:24:23.581Z,97712.25
2023-03-11T01:24:56.822Z,97719.03
2023-03-11T01:25:30.330Z,97712.66
2023-03-11T01:26:05.119Z,97713.44
2023-03-11T01:26:36.933Z,97715.19
2023-03-11T01:27:12.083Z,97712.09
2023-03-11T01:27:45.418Z,97710.47
2023-03-11T01:28:17.335Z,97712.09
2023-03-11T01:28:52.092Z,97710.47
2023-03-11T01:29:23.624Z,97710.47
2023-03-11T01:29:57.223Z,97707.94
2023-03-11T01:30:30.135Z,97724.00
2023-03-11T01:31:02.202Z,97713.28
2023-03-11T01:31:33.984Z,97713.13
2023-03-11T01:32:39.168Z,97710.81
2023-03-11T01:33:16.831Z,97713.69
2023-03-11T01:33:48.632Z,97708.53
2023-03-11T01:34:23.630Z,97702.53
2023-03-11T01:34:55.376Z,97709.38
2023-03-11T01:36:01.133Z,97701.34
2023-03-11T01:37:05.398Z,97710.41
2023-03-11T01:37:37.214Z,97705.88
2023-03-11T01:38:45.074Z,97704.41
2023-03-11T01:39:51.098Z,97703.78
2023-03-11T01:40:42.681Z,97704.59
2023-03-11T01:41:17.154Z,97691.78
2023-03-11T01:42:24.840Z,97700.06
2023-03-11T01:43:01.773Z,97701.09
2023-03-11T01:43:47.062Z,97695.50
2023-03-11T01:44:19.274Z,97693.84
2023-03-11T01:45:50.242Z,97695.22
2023-03-11T01:46:52.494Z,97683.72
2023-03-11T01:47:39.652Z,97688.44
2023-03-11T01:48:12.098Z,97686.78
2023-03-11T01:48:55.908Z,97682.28
2023-03-11T01:50:03.667Z,97688.38
2023-03-11T01:50:43.158Z,97685.50
2023-03-11T01:51:28.549Z,97698.25
2023-03-11T01:52:07.864Z,97700.44
2023-03-11T01:52:42.514Z,97693.66
2023-03-11T01:53:47.182Z,97696.91
2023-03-11T01:54:23.311Z,97695.69
2023-03-11T01:54:56.525Z,97699.81
2023-03-11T01:56:14.522Z,97702.13
2023-03-11T01:57:20.553Z,97708.31
2023-03-11T01:57:53.869Z,97705.44
2023-03-11T01:58:58.854Z,97705.84
2023-03-11T01:59:36.240Z,97713.72
2023-03-11T02:01:05.540Z,97719.75
2023-03-11T02:02:26.071Z,97728.88
2023-03-11T02:03:02.370Z,97731.75
2023-03-11T02:04:09.390Z,97738.31
2023-03-11T02:04:44.026Z,97726.13
2023-03-11T02:05:17.339Z,97738.09
2023-03-11T02:05:52.438Z,97737.66
2023-03-11T02:06:28.664Z,97739.88
2023-03-11T02:07:03.452Z,97737.66
2023-03-11T02:07:39.487Z,97738.47
2023-03-11T02:08:11.364Z,97740.22
2023-03-11T02:08:46.157Z,97738.19
2023-03-11T02:09:24.264Z,97738.63
2023-03-11T02:09:56.103Z,97739.00
2023-03-11T02:10:28.379Z,97741.59
2023-03-11T02:11:33.336Z,97740.59
2023-03-11T02:12:11.073Z,97746.75
2023-03-11T02:12:50.863Z,97741.81
2023-03-11T02:13:24.047Z,97748.13
2023-03-11T02:14:00.734Z,97744.47
2023-03-11T02:15:08.762Z,97741.13
2023-03-11T02:15:41.168Z,97751.00
2023-03-11T02:16:14.545Z,97745.47
2023-03-11T02:16:46.494Z,97742.63
2023-03-11T02:17:50.844Z,97746.94
2023-03-11T02:18:22.638Z,97749.00
2023-03-11T02:19:31.608Z,97748.06
2023-03-11T02:20:21.107Z,97743.31
2023-03-11T02:21:33.054Z,97743.31
2023-03-11T02:22:05.036Z,97747.16
2023-03-11T02:22:37.143Z,97752.50
2023-03-11T02:23:09.872Z,97743.50
2023-03-11T02:24:08.083Z,97744.56
2023-03-11T02:25:01.856Z,97741.72
2023-03-11T02:25:46.240Z,97750.91
2023-03-11T02:26:44.400Z,97744.41
2023-03-11T02:27:55.627Z,97751.38
2023-03-11T02:28:29.109Z,97747.50
2023-03-11T02:29:34.985Z,97746.47
2023-03-11T02:30:08.655Z,97747.72
2023-03-11T02:30:44.072Z,97748.38
2023-03-11T02:31:16.642Z,97748.19
2023-03-11T02:31:49.980Z,97737.28
2023-03-11T02:32:22.423Z,97741.63
2023-03-11T02:33:32.632Z,97743.72
2023-03-11T02:34:08.132Z,97743.53
2023-03-11T02:35:17.330Z,97752.00
2023-03-11T02:35:49.256Z,97750.09
2023-03-11T02:36:38.529Z,97754.91
2023-03-11T02:37:46.605Z,97748.53
2023-03-11T02:38:18.917Z,97757.84
2023-03-11T02:38:50.741Z,97753.97
2023-03-11T02:39:36.291Z,97756.06
2023-03-11T02:40:22.923Z,97749.69
2023-03-11T02:41:28.811Z,97745.19
2023-03-11T02:42:05.982Z,97749.13
2023-03-11T02:42:37.823Z,97749.78
2023-03-11T02:43:16.229Z,97750.78
2023-03-11T02:44:21.777Z,97750.72
2023-03-11T02:45:03.348Z,97746.00
2023-03-11T02:45:40.508Z,97738.59
2023-03-11T02:46:18.027Z,97749.69
2023-03-11T02:46:50.177Z,97757.34
2023-03-11T02:47:22.237Z,97755.50
2023-03-11T02:48:28.441Z,97754.63
2023-03-11T02:49:04.679Z,97761.41
2023-03-11T02:49:37.258Z,97763.72
2023-03-11T02:50:13.815Z,97761.03
2023-03-11T02:51:18.437Z,97759.00
2023-03-11T02:51:53.345Z,97763.78
2023-03-11T02:52:28.114Z,97758.59
2023-03-11T02:53:39.475Z,97770.13
2023-03-11T02:54:12.163Z,97766.63
2023-03-11T02:54:43.999Z,97765.44
2023-03-11T02:55:18.178Z,97764.22
2023-03-11T02:56:22.824Z,97757.28
2023-03-11T02:56:56.318Z,97759.50
2023-03-11T02:57:29.780Z,97758.88
2023-03-11T02:58:02.883Z,97762.84
2023-03-11T02:58:35.863Z,97756.53
2023-03-11T02:59:10.887Z,97749.78
2023-03-11T02:59:42.667Z,97754.31
2023-03-11T03:00:50.614Z,97755.97
2023-03-11T03:01:25.861Z,97747.47
2023-03-11T03:01:57.806Z,97749.72
2023-03-11T03:02:29.583Z,97756.88
2023-03-11T03:03:01.617Z,97753.59
2023-03-11T03:03:36.984Z,97757.09
2023-03-11T03:04:41.675Z,97758.56
2023-03-11T03:05:14.077Z,97760.41
2023-03-11T03:06:19.148Z,97770.03
2023-03-11T03:06:51.043Z,97771.03
2023-03-11T03:07:22.927Z,97772.88
2023-03-11T03:07:54.733Z,97773.53
2023-03-11T03:08:26.612Z,97771.69
2023-03-11T03:09:56.203Z,97775.03
2023-03-11T03:10:28.032Z,97769.59
2023-03-11T03:11:03.905Z,97771.69
2023-03-11T03:11:35.717Z,97765.72
2023-03-11T03:12:08.139Z,97759.75
2023-03-11T03:12:44.080Z,97758.72
2023-03-11T03:13:15.913Z,97765.25
2023-03-11T03:13:47.718Z,97760.75
2023-03-11T03:14:54.757Z,97759.09
2023-03-11T03:15:27.637Z,97758.72
2023-03-11T03:16:00.867Z,97754.19
2023-03-11T03:16:35.801Z,97759.66
2023-03-11T03:17:07.718Z,97753.03
2023-03-11T03:17:39.702Z,97758.88
2023-03-11T03:18:14.331Z,97763.66
2023-03-11T03:18:47.883Z,97764.13
2023-03-11T03:19:55.860Z,97760.47
2023-03-11T03:20:27.785Z,97760.28
2023-03-11T03:21:02.832Z,97765.00
2023-03-11T03:21:37.760Z,97758.63
2023-03-11T03:22:09.719Z,97765.63
2023-03-11T03:22:42.451Z,97773.66
2023-03-11T03:23:47.267Z,97769.59
2023-03-11T03:24:20.867Z,97776.78
2023-03-11T03:24:53.007Z,97763.97
2023-03-11T03:25:57.094Z,97767.44
2023-03-11T03:26:30.904Z,97766.84
2023-03-11T03:27:02.986Z,97758.84
2023-03-11T03:27:35.049Z,97764.56
2023-03-11T03:28:10.510Z,97774.00
2023-03-11T03:28:42.388Z,97772.91
2023-03-11T03:29:14.212Z,97775.59
2023-03-11T03:30:18.884Z,97780.22
2023-03-11T03:30:54.187Z,97777.56
2023-03-11T03:31:25.866Z,97769.72
2023-03-11T03:32:00.964Z,97776.72
2023-03-11T03:32:32.843Z,97783.66
2023-03-11T03:33:05.328Z,97786.53
2023-03-11T03:33:37.268Z,97790.22
2023-03-11T03:34:44.798Z,97784.22
2023-03-11T03:35:16.924Z,97788.31
2023-03-11T03:36:07.883Z,97786.06
2023-03-11T03:36:39.948Z,97788.28
2023-03-11T03:37:11.898Z,97788.94
2023-03-11T03:37:47.154Z,97786.97
2023-03-11T03:38:20.371Z,97789.06
2023-03-11T03:38:59.611Z,97791.38
2023-03-11T03:40:08.410Z,97785.50
2023-03-11T03:40:47.475Z,97784.50
2023-03-11T03:41:23.620Z,97790.50
2023-03-11T03:41:55.481Z,97785.81
2023-03-11T03:42:28.525Z,97786.66
2023-03-11T03:43:55.983Z,97780.31
2023-03-11T03:44:28.001Z,97784.25
2023-03-11T03:44:59.980Z,97786.72
2023-03-11T03:45:31.933Z,97781.38
2023-03-11T03:46:05.652Z,97782.78
2023-03-11T03:46:38.582Z,97780.53
2023-03-11T03:47:42.746Z,97779.78
2023-03-11T03:48:14.718Z,97787.59
2023-03-11T03:48:47.384Z,97781.22
2023-03-11T03:49:19.213Z,97780.59
2023-03-11T03:50:26.784Z,97781.25
2023-03-11T03:51:04.552Z,97784.13
2023-03-11T03:52:22.910Z,97775.25
2023-03-11T03:52:55.820Z,97776.09
2023-03-11T03:53:31.398Z,97775.06
2023-03-11T03:54:03.212Z,97770.13
2023-03-11T03:54:35.006Z,97780.22
2023-03-11T03:55:40.814Z,97774.63
2023-03-11T03:56:15.566Z,97783.72
2023-03-11T03:57:20.238Z,97783.56
2023-03-11T03:57:52.208Z,97782.53
2023-03-11T03:58:24.076Z,97786.63
2023-03-11T03:59:29.993Z,97784.34
2023-03-11T04:00:05.632Z,97785.81
2023-03-11T04:01:13.606Z,97779.03
2023-03-11T04:02:21.878Z,97788.28
2023-03-11T04:03:28.819Z,97784.16
2023-03-11T04:04:03.932Z,97785.78
2023-03-11T04:05:10.721Z,97782.06
2023-03-11T04:05:45.767Z,97779.00
2023-03-11T04:06:26.155Z,97786.41
2023-03-11T04:06:59.913Z,97775.69
2023-03-11T04:07:36.124Z,97781.84
2023-03-11T04:08:12.351Z,97779.38
2023-03-11T04:08:48.225Z,97781.00
2023-03-11T04:09:21.959Z,97779.13
2023-03-11T04:09:56.875Z,97775.63
2023-03-11T04:10:31.815Z,97785.53
2023-03-11T04:11:05.046Z,97782.44
2023-03-11T04:11:39.877Z,97784.06
2023-03-11T04:12:17.696Z,97791.06
2023-03-11T04:12:55.261Z,97786.31
2023-03-11T04:13:29.006Z,97794.78
2023-03-11T04:14:05.880Z,97789.81
2023-03-11T04:15:11.126Z,97785.25
2023-03-11T04:15:44.853Z,97784.63
2023-03-11T04:16:22.690Z,97789.97
2023-03-11T04:16:55.991Z,97787.28
2023-03-11T04:17:30.869Z,97786.25
2023-03-11T04:18:05.942Z,97787.72
2023-03-11T04:18:39.389Z,97782.16
2023-03-11T04:19:13.963Z,97791.22
2023-03-11T04:19:48.793Z,97780.91
2023-03-11T04:20:23.855Z,97782.34
2023-03-11T04:20:58.917Z,97787.69
2023-03-11T04:21:34.108Z,97782.50
2023-03-11T04:22:07.903Z,97794.06
2023-03-11T04:22:42.844Z,97784.97
2023-03-11T04:23:17.842Z,97789.06
2023-03-11T04:23:53.037Z,97787.59
2023-03-11T04:24:30.246Z,97784.91
2023-03-11T04:25:37.830Z,97789.63
2023-03-11T04:26:13.599Z,97790.84
2023-03-11T04:26:46.942Z,97798.06
2023-03-11T04:27:21.890Z,97791.84
2023-03-11T04:27:57.016Z,97792.22
2023-03-11T04:28:31.909Z,97796.50
2023-03-11T04:29:06.801Z,97799.38
2023-03-11T04:29:41.512Z,97796.91
2023-03-11T04:30:17.184Z,97796.66
2023-03-11T04:30:49.538Z,97800.78
2023-03-11T04:31:24.908Z,97795.25
2023-03-11T04:31:59.813Z,97793.41
2023-03-11T04:32:35.150Z,97800.78
2023-03-11T04:33:08.939Z,97796.66
2023-03-11T04:33:43.806Z,97794.69
2023-03-11T04:34:19.001Z,97796.91
2023-03-11T04:35:26.872Z,97794.75
2023-03-11T04:36:34.826Z,97793.66
2023-03-11T04:37:06.837Z,97789.09
2023-03-11T04:37:40.293Z,97797.81
2023-03-11T04:38:13.954Z,97798.88
2023-03-11T04:39:21.822Z,97797.03
2023-03-11T04:39:57.016Z,97800.16
2023-03-11T04:40:31.900Z,97797.47
2023-03-11T04:41:07.722Z,97802.38
2023-03-11T04:41:42.915Z,97789.66
2023-03-11T04:42:19.228Z,97789.00
2023-03-11T04:42:53.712Z,97802.19
2023-03-11T04:43:29.316Z,97796.84
2023-03-11T04:44:02.811Z,97801.38
2023-03-11T04:44:38.014Z,97799.91
2023-03-11T04:45:45.977Z,97814.31
2023-03-11T04:46:20.965Z,97805.25
2023-03-11T04:46:55.848Z,97812.09
2023-03-11T04:47:30.802Z,97813.72
2023-03-11T04:48:05.945Z,97822.78
2023-03-11T04:48:40.977Z,97821.75
2023-03-11T04:49:16.591Z,97823.41
2023-03-11T04:49:51.864Z,97823.22
2023-03-11T04:50:26.539Z,97828.34
2023-03-11T04:51:01.912Z,97834.16
2023-03-11T04:51:34.597Z,97836.00
2023-03-11T04:52:09.821Z,97839.13
2023-03-11T04:52:44.551Z,97839.97
2023-03-11T04:53:16.822Z,97839.13
2023-03-11T04:53:51.504Z,97835.88
2023-03-11T04:54:24.996Z,97832.56
2023-03-11T04:54:58.412Z,97836.44
2023-03-11T04:55:31.603Z,97832.75
2023-03-11T04:56:07.145Z,97833.53
2023-03-11T04:56:39.897Z,97828.59
2023-03-11T04:57:11.700Z,97826.97
2023-03-11T04:57:44.129Z,97832.50
2023-03-11T04:58:16.029Z,97830.00
2023-03-11T04:58:50.841Z,97837.25
2023-03-11T04:59:22.650Z,97831.03
2023-03-11T04:59:54.558Z,97838.03
2023-03-11T05:00:26.432Z,97833.66
2023-03-11T05:00:58.374Z,97835.91
2023-03-11T05:02:05.346Z,97834.69
2023-03-11T05:02:40.872Z,97830.00
2023-03-11T05:03:15.955Z,97834.13
2023-03-11T05:03:47.981Z,97833.88
2023-03-11T05:04:19.791Z,97837.16
2023-03-11T05:04:51.677Z,97839.22
2023-03-11T05:05:26.379Z,97834.25
2023-03-11T05:06:00.376Z,97833.25
2023-03-11T05:06:34.043Z,97841.22
2023-03-11T05:07:08.788Z,97835.22
2023-03-11T05:07:43.868Z,97840.34
2023-03-11T05:08:15.708Z,97837.06
2023-03-11T05:09:36.873Z,97833.56
2023-03-11T05:10:09.441Z,97834.38
2023-03-11T05:10:42.826Z,97837.06
2023-03-11T05:11:47.448Z,97845.84
2023-03-11T05:12:19.328Z,97838.03
2023-03-11T05:13:26.791Z,97832.25
2023-03-11T05:13:58.922Z,97833.38
2023-03-11T05:14:31.344Z,97831.72
2023-03-11T05:15:03.196Z,97835.03
2023-03-11T05:15:35.650Z,97840.78
2023-03-11T05:16:07.747Z,97830.84
2023-03-11T05:16:39.572Z,97829.19
2023-03-11T05:17:13.435Z,97836.38
2023-03-11T05:17:45.433Z,97838.81
2023-03-11T05:18:17.646Z,97843.25
2023-03-11T05:18:49.445Z,97841.66
2023-03-11T05:19:35.308Z,97846.19
2023-03-11T05:20:40.557Z,97850.28
2023-03-11T05:21:12.347Z,97843.03
2023-03-11T05:22:17.531Z,97863.84
2023-03-11T05:22:49.524Z,97872.06
2023-03-11T05:23:21.327Z,97867.75
2023-03-11T05:23:53.162Z,97858.06
2023-03-11T05:24:27.815Z,97871.78
2023-03-11T05:24:59.902Z,97873.56
2023-03-11T05:25:33.684Z,97873.84
2023-03-11T05:26:06.251Z,97872.75
2023-03-11T05:26:38.015Z,97878.63
2023-03-11T05:27:09.795Z,97884.56
2023-03-11T05:28:15.616Z,97888.88
2023-03-11T05:28:47.900Z,97891.00
2023-03-11T05:29:53.533Z,97895.22
2023-03-11T05:30:25.579Z,97898.47
2023-03-11T05:30:58.505Z,97899.00
2023-03-11T05:31:31.914Z,97901.78
2023-03-11T05:32:04.141Z,97898.16
2023-03-11T05:33:10.503Z,97884.16
2023-03-11T05:33:45.882Z,97903.59
2023-03-11T05:34:53.934Z,97894.00
2023-03-11T05:35:26.067Z,97897.22
2023-03-11T05:35:59.687Z,97898.03
2023-03-11T05:36:32.929Z,97897.22
2023-03-11T05:37:07.507Z,97888.63
2023-03-11T05:37:41.055Z,97898.22
2023-03-11T05:38:15.889Z,97900.41
2023-03-11T05:38:55.260Z,97895.59
2023-03-11T05:40:17.629Z,97903.97
2023-03-11T05:40:51.304Z,97893.00
2023-03-11T05:41:24.524Z,97895.56
2023-03-11T05:42:00.488Z,97894.63
2023-03-11T05:42:35.333Z,97891.19
2023-03-11T05:43:10.352Z,97892.44
2023-03-11T05:44:06.889Z,97895.44
2023-03-11T05:45:13.485Z,97892.19
2023-03-11T05:45:48.475Z,97897.69
2023-03-11T05:46:31.366Z,97905.91
2023-03-11T05:47:06.408Z,97908.38
2023-03-11T05:47:42.258Z,97905.72
2023-03-11T05:48:17.308Z,97907.28
2023-03-11T05:48:50.742Z,97907.09
2023-03-11T05:49:28.191Z,97914.41
2023-03-11T05:50:11.478Z,97916.56
2023-03-11T05:50:46.767Z,97905.13
2023-03-11T05:51:22.439Z,97906.16
2023-03-11T05:52:05.323Z,97913.31
2023-03-11T05:52:40.491Z,97906.28
2023-03-11T05:53:16.054Z,97912.44
2023-03-11T05:53:49.560Z,97919.81
2023-03-11T05:54:23.003Z,97917.97
2023-03-11T05:54:55.060Z,97913.34
2023-03-11T05:55:30.417Z,97919.84
2023-03-11T05:56:06.753Z,97922.00
2023-03-11T05:56:42.920Z,97920.19
2023-03-11T05:57:15.868Z,97909.72
2023-03-11T05:57:55.076Z,97917.06
2023-03-11T05:58:27.827Z,97931.03
2023-03-11T05:58:59.598Z,97927.06
2023-03-11T06:00:12.666Z,97926.56
2023-03-11T06:00:46.288Z,97939.06
2023-03-11T06:01:27.240Z,97932.41
2023-03-11T06:02:23.626Z,97930.41
2023-03-11T06:02:55.488Z,97935.59
2023-03-11T06:03:27.510Z,97936.44
2023-03-11T06:04:32.651Z,97942.22
2023-03-11T06:05:08.228Z,97947.38
2023-03-11T06:05:50.880Z,97946.06
2023-03-11T06:06:55.572Z,97949.44
2023-03-11T06:07:29.337Z,97960.38
2023-03-11T06:08:02.490Z,97958.75
2023-03-11T06:08:35.709Z,97955.44
2023-03-11T06:09:13.519Z,97958.44
2023-03-11T06:09:45.415Z,97961.94
2023-03-11T06:10:17.531Z,97936.19
2023-03-11T06:11:25.793Z,97948.31
2023-03-11T06:12:01.321Z,97945.16
2023-03-11T06:12:35.351Z,97948.00
2023-03-11T06:13:07.136Z,97932.88
2023-03-11T06:13:42.616Z,97935.56
2023-03-11T06:14:15.793Z,97941.53
2023-03-11T06:14:48.133Z,97946.84
2023-03-11T06:15:54.009Z,97937.22
2023-03-11T06:16:27.431Z,97941.88
2023-03-11T06:17:36.144Z,97944.53
2023-03-11T06:18:09.533Z,97937.56
2023-03-11T06:18:43.397Z,97950.19
2023-03-11T06:19:52.038Z,97950.03
2023-03-11T06:20:25.782Z,97951.88
2023-03-11T06:21:01.925Z,97953.19
2023-03-11T06:21:36.698Z,97959.34
2023-03-11T06:22:41.141Z,97956.50
2023-03-11T06:23:13.108Z,97953.19
2023-03-11T06:23:45.160Z,97962.66
2023-03-11T06:24:17.122Z,97959.16
2023-03-11T06:24:49.192Z,97966.13
2023-03-11T06:25:21.236Z,97962.47
2023-03-11T06:26:29.312Z,97966.97
2023-03-11T06:27:01.110Z,97977.91
2023-03-11T06:28:10.840Z,97975.44
2023-03-11T06:28:45.546Z,97975.44
2023-03-11T06:29:54.503Z,97978.44
2023-03-11T06:30:29.977Z,97993.38
2023-03-11T06:31:11.715Z,97990.03
2023-03-11T06:32:20.408Z,97990.19
2023-03-11T06:32:55.813Z,97986.38
2023-03-11T06:33:27.614Z,97986.38
2023-03-11T06:34:32.902Z,97982.88
2023-03-11T06:35:04.958Z,97980.41
2023-03-11T06:36:12.719Z,97992.34
2023-03-11T06:36:44.737Z,97994.34
2023-03-11T06:38:13.610Z,98001.16
2023-03-11T06:38:48.605Z,97990.03
2023-03-11T06:39:58.883Z,97999.16
2023-03-11T06:40:30.769Z,97999.66
2023-03-11T06:41:05.558Z,98006.63
2023-03-11T06:41:37.390Z,98006.78
2023-03-11T06:42:11.987Z,98007.78
2023-03-11T06:42:48.972Z,98016.25
2023-03-11T06:43:22.636Z,98008.28
2023-03-11T06:43:54.492Z,98020.41
2023-03-11T06:44:26.333Z,98016.25
2023-03-11T06:44:58.156Z,98020.25
2023-03-11T06:45:29.996Z,98022.03
2023-03-11T06:46:11.369Z,98017.06
2023-03-11T06:46:43.217Z,98015.75
2023-03-11T06:47:15.132Z,98011.75
2023-03-11T06:48:19.560Z,98012.56
2023-03-11T06:48:52.601Z,98012.22
2023-03-11T06:49:24.843Z,98010.91
2023-03-11T06:50:06.569Z,98020.34
2023-03-11T06:50:42.309Z,98021.00
2023-03-11T06:51:14.460Z,98013.84
2023-03-11T06:52:21.929Z,98020.03
2023-03-11T06:52:56.352Z,98020.03
2023-03-11T06:53:31.832Z,98029.50
2023-03-11T06:54:07.315Z,98015.22
2023-03-11T06:55:11.944Z,98022.66
2023-03-11T06:56:01.489Z,98037.28
2023-03-11T06:56:36.227Z,98032.81
2023-03-11T06:57:10.565Z,98037.75
2023-03-11T06:57:46.686Z,98040.41
2023-03-11T06:58:21.099Z,98027.31
2023-03-11T06:58:54.004Z,98027.13
2023-03-11T06:59:58.219Z,98025.31
2023-03-11T07:00:33.525Z,98030.78
2023-03-11T07:01:10.815Z,98024.00
2023-03-11T07:01:44.344Z,98037.09
2023-03-11T07:02:19.482Z,98028.31
2023-03-11T07:02:51.478Z,98040.13
2023-03-11T07:03:56.024Z,98034.63
2023-03-11T07:04:31.652Z,98046.72
2023-03-11T07:05:03.894Z,98049.69
2023-03-11T07:05:37.435Z,98036.28
2023-03-11T07:06:15.540Z,98045.25
2023-03-11T07:06:47.309Z,98042.25
2023-03-11T07:07:20.386Z,98046.19
2023-03-11T07:07:55.414Z,98046.72
2023-03-11T07:08:28.407Z,98044.75
2023-03-11T07:09:00.354Z,98042.09
2023-03-11T07:09:33.019Z,98050.56
2023-03-11T07:10:05.928Z,98050.69
2023-03-11T07:10:37.874Z,98037.94
2023-03-11T07:11:14.756Z,98044.25
2023-03-11T07:11:46.964Z,98051.69
2023-03-11T07:12:19.076Z,98040.75
2023-03-11T07:13:25.359Z,98059.44
2023-03-11T07:13:57.172Z,98063.63
2023-03-11T07:14:30.611Z,98066.63
2023-03-11T07:15:02.519Z,98055.00
2023-03-11T07:15:34.586Z,98062.97
2023-03-11T07:16:11.536Z,98066.81
2023-03-11T07:16:44.433Z,98070.84
2023-03-11T07:17:52.823Z,98073.59
2023-03-11T07:18:24.693Z,98078.28
2023-03-11T07:19:03.010Z,98072.13
2023-03-11T07:19:34.822Z,98071.00
2023-03-11T07:20:07.362Z,98075.50
2023-03-11T07:20:39.273Z,98076.31
2023-03-11T07:21:14.658Z,98071.94
2023-03-11T07:21:46.476Z,98081.72
2023-03-11T07:22:18.504Z,98077.88
2023-03-11T07:22:50.276Z,98090.66
2023-03-11T07:23:22.175Z,98089.34
2023-03-11T07:24:26.867Z,98101.59
2023-03-11T07:24:59.210Z,98093.31
2023-03-11T07:25:31.144Z,98100.94
2023-03-11T07:26:03.028Z,98103.16
2023-03-11T07:26:35.917Z,98112.13
2023-03-11T07:27:07.813Z,98113.41
2023-03-11T07:27:39.618Z,98108.63
2023-03-11T07:28:12.862Z,98113.78
2023-03-11T07:28:45.031Z,98118.88
2023-03-11T07:29:17.164Z,98115.69
2023-03-11T07:29:49.792Z,98119.41
2023-03-11T07:30:21.730Z,98119.41
2023-03-11T07:30:54.238Z,98121.06
2023-03-11T07:31:28.745Z,98117.78
2023-03-11T07:32:00.644Z,98126.72
2023-03-11T07:32:32.408Z,98125.03
2023-03-11T07:33:04.296Z,98123.09
2023-03-11T07:33:37.450Z,98115.22
2023-03-11T07:34:12.877Z,98124.56
2023-03-11T07:34:44.886Z,98132.72
2023-03-11T07:35:16.858Z,98120.94
2023-03-11T07:35:49.502Z,98128.50
2023-03-11T07:36:24.590Z,98132.38
2023-03-11T07:36:56.368Z,98131.38
2023-03-11T07:37:28.171Z,98136.38
2023-03-11T07:38:00.623Z,98132.03
2023-03-11T07:38:32.360Z,98137.25
2023-03-11T07:39:05.870Z,98134.81
2023-03-11T07:39:38.980Z,98134.59
2023-03-11T07:40:11.343Z,98129.53
2023-03-11T07:40:44.215Z,98130.50
2023-03-11T07:41:16.671Z,98124.53
2023-03-11T07:41:48.592Z,98131.16
2023-03-11T07:42:20.691Z,98124.22
2023-03-11T07:42:52.870Z,98134.41
2023-03-11T07:43:24.716Z,98131.28
2023-03-11T07:43:59.287Z,98135.16
2023-03-11T07:44:31.036Z,98137.78
2023-03-11T07:45:03.093Z,98135.88
2023-03-11T07:45:34.907Z,98136.94
2023-03-11T07:46:13.932Z,98141.28
2023-03-11T07:46:46.406Z,98140.66
2023-03-11T07:47:18.341Z,98142.16
2023-03-11T07:47:50.182Z,98143.06
2023-03-11T07:48:22.430Z,98133.75
2023-03-11T07:48:55.347Z,98120.59
2023-03-11T07:49:27.108Z,98127.75
2023-03-11T07:49:58.895Z,98132.03
2023-03-11T07:50:30.716Z,98127.88
2023-03-11T07:51:06.374Z,98127.88